createdAt,value
2016-10-28T00:00:27.025Z,1019.99
2016-10-28T00:01:27.045Z,1019.88
2016-10-28T00:02:27.061Z,1019.88
2016-10-28T00:03:27.078Z,1019.84
2016-10-28T00:04:27.093Z,1019.81
2016-10-28T00:05:27.111Z,1019.71
2016-10-28T00:06:27.128Z,1019.7
2016-10-28T00:07:27.141Z,1019.64
2016-10-28T00:08:27.157Z,1019.64
2016-10-28T00:09:27.177Z,1019.61
2016-10-28T00:10:27.191Z,1019.53
2016-10-28T00:11:27.221Z,1019.5
2016-10-28T00:12:27.224Z,1019.53
2016-10-28T00:13:27.245Z,1019.54
2016-10-28T00:14:27.260Z,1019.5
2016-10-28T00:15:27.274Z,1019.51
2016-10-28T00:16:27.294Z,1019.49
2016-10-28T00:17:27.311Z,1019.48
2016-10-28T00:18:27.325Z,1019.42
2016-10-28T00:19:27.339Z,1019.4
2016-10-28T00:20:27.397Z,1019.42
2016-10-28T00:21:27.405Z,1019.4
2016-10-28T00:22:27.415Z,1019.4
2016-10-28T00:23:27.424Z,1019.38
2016-10-28T00:24:27.420Z,1019.44
2016-10-28T00:25:27.436Z,1019.4
2016-10-28T00:26:27.574Z,1019.38
2016-10-28T00:27:27.582Z,1019.4
2016-10-28T00:28:27.590Z,1019.42
2016-10-28T00:29:27.614Z,1019.42
2016-10-28T00:30:27.619Z,1019.46
2016-10-28T00:31:27.630Z,1019.48
2016-10-28T00:32:27.652Z,1019.58
2016-10-28T00:33:27.651Z,1019.62
2016-10-28T00:34:27.584Z,1019.66
2016-10-28T00:35:27.601Z,1019.71
2016-10-28T00:36:27.617Z,1019.73
2016-10-28T00:37:27.633Z,1019.76
2016-10-28T00:38:27.651Z,1019.8
2016-10-28T00:39:27.668Z,1019.82
2016-10-28T00:40:27.684Z,1019.77
2016-10-28T00:41:27.701Z,1019.77
2016-10-28T00:42:27.716Z,1019.7
2016-10-28T00:43:27.733Z,1019.7
2016-10-28T00:44:27.749Z,1019.65
2016-10-28T00:45:27.765Z,1019.64
2016-10-28T00:46:27.783Z,1019.59
2016-10-28T00:47:27.798Z,1019.65
2016-10-28T00:48:27.816Z,1019.63
2016-10-28T00:49:27.839Z,1019.61
2016-10-28T00:50:27.852Z,1019.61
2016-10-28T00:51:27.867Z,1019.54
2016-10-28T00:52:27.884Z,1019.54
2016-10-28T00:53:27.900Z,1019.54
2016-10-28T00:54:27.916Z,1019.46
2016-10-28T00:55:27.934Z,1019.42
2016-10-28T00:56:27.953Z,1019.36
2016-10-28T00:57:27.968Z,1019.34
2016-10-28T00:58:27.984Z,1019.36
2016-10-28T00:59:28.000Z,1019.38
2016-10-28T01:00:28.017Z,1019.29
2016-10-28T01:01:28.034Z,1019.29
2016-10-28T01:02:28.049Z,1019.32
2016-10-28T01:03:28.066Z,1019.28
2016-10-28T01:04:28.082Z,1019.23
2016-10-28T01:05:28.098Z,1019.22
2016-10-28T01:06:28.115Z,1019.2
2016-10-28T01:07:28.132Z,1019.25
2016-10-28T01:08:28.149Z,1019.23
2016-10-28T01:09:28.164Z,1019.19
2016-10-28T01:10:28.181Z,1019.18
2016-10-28T01:11:28.198Z,1019.14
2016-10-28T01:12:28.215Z,1019.12
2016-10-28T01:13:28.231Z,1019.05
2016-10-28T01:14:28.248Z,1019.07
2016-10-28T01:15:28.264Z,1019
2016-10-28T01:16:28.279Z,1019
2016-10-28T01:17:28.297Z,1018.95
2016-10-28T01:18:28.314Z,1018.89
2016-10-28T01:19:28.330Z,1018.84
2016-10-28T01:20:28.359Z,1018.79
2016-10-28T01:21:28.364Z,1018.79
2016-10-28T01:22:28.380Z,1018.75
2016-10-28T01:23:28.396Z,1018.72
2016-10-28T01:24:28.414Z,1018.73
2016-10-28T01:25:28.431Z,1018.78
2016-10-28T01:26:28.447Z,1018.75
2016-10-28T01:27:28.463Z,1018.74
2016-10-28T01:28:28.479Z,1018.75
2016-10-28T01:29:28.496Z,1018.74
2016-10-28T01:30:28.513Z,1018.74
2016-10-28T01:31:28.530Z,1018.74
2016-10-28T01:32:28.546Z,1018.73
2016-10-28T01:33:28.563Z,1018.77
2016-10-28T01:34:28.580Z,1018.81
2016-10-28T01:35:28.596Z,1018.81
2016-10-28T01:36:28.613Z,1018.86
2016-10-28T01:37:28.630Z,1018.94
2016-10-28T01:38:28.645Z,1018.96
2016-10-28T01:39:28.662Z,1019.06
2016-10-28T01:40:28.679Z,1019.03
2016-10-28T01:41:28.696Z,1019.06
2016-10-28T01:42:28.711Z,1019.04
2016-10-28T01:43:28.728Z,1019.05
2016-10-28T01:44:28.745Z,1019.03
2016-10-28T01:45:28.761Z,1019
2016-10-28T01:46:28.778Z,1019.01
2016-10-28T01:47:28.796Z,1018.95
2016-10-28T01:48:28.812Z,1018.92
2016-10-28T01:49:28.828Z,1018.9
2016-10-28T01:50:28.845Z,1018.84
2016-10-28T01:51:28.863Z,1018.82
2016-10-28T01:52:28.878Z,1018.76
2016-10-28T01:53:28.895Z,1018.84
2016-10-28T01:54:28.911Z,1018.79
2016-10-28T01:55:28.929Z,1018.86
2016-10-28T01:56:28.943Z,1018.9
2016-10-28T01:57:28.960Z,1018.91
2016-10-28T01:58:28.978Z,1018.86
2016-10-28T01:59:28.994Z,1018.85
2016-10-28T02:00:29.010Z,1018.82
2016-10-28T02:01:29.026Z,1018.81
2016-10-28T02:02:29.043Z,1018.75
2016-10-28T02:03:29.060Z,1018.75
2016-10-28T02:04:29.076Z,1018.78
2016-10-28T02:05:29.092Z,1018.76
2016-10-28T02:06:29.109Z,1018.82
2016-10-28T02:07:29.124Z,1018.78
2016-10-28T02:08:29.141Z,1018.8
2016-10-28T02:09:29.158Z,1018.77
2016-10-28T02:10:29.175Z,1018.74
2016-10-28T02:11:29.191Z,1018.75
2016-10-28T02:12:29.208Z,1018.71
2016-10-28T02:13:29.224Z,1018.69
2016-10-28T02:14:29.240Z,1018.63
2016-10-28T02:15:29.256Z,1018.61
2016-10-28T02:16:29.273Z,1018.65
2016-10-28T02:17:29.289Z,1018.67
2016-10-28T02:18:29.305Z,1018.7
2016-10-28T02:19:29.322Z,1018.72
2016-10-28T02:20:29.339Z,1018.7
2016-10-28T02:21:29.356Z,1018.72
2016-10-28T02:22:29.371Z,1018.7
2016-10-28T02:23:29.388Z,1018.71
2016-10-28T02:24:29.406Z,1018.7
2016-10-28T02:25:29.422Z,1018.66
2016-10-28T02:26:29.438Z,1018.67
2016-10-28T02:27:29.456Z,1018.72
2016-10-28T02:28:29.472Z,1018.73
2016-10-28T02:29:29.487Z,1018.72
2016-10-28T02:30:29.757Z,1018.75
2016-10-28T02:31:29.521Z,1018.67
2016-10-28T02:32:29.538Z,1018.66
2016-10-28T02:33:29.554Z,1018.68
2016-10-28T02:34:29.571Z,1018.71
2016-10-28T02:35:29.587Z,1018.71
2016-10-28T02:36:29.605Z,1018.63
2016-10-28T02:37:29.620Z,1018.64
2016-10-28T02:38:29.636Z,1018.61
2016-10-28T02:39:29.653Z,1018.57
2016-10-28T02:40:29.669Z,1018.63
2016-10-28T02:41:29.686Z,1018.61
2016-10-28T02:42:29.703Z,1018.6
2016-10-28T02:43:29.719Z,1018.61
2016-10-28T02:44:29.736Z,1018.63
2016-10-28T02:45:29.753Z,1018.66
2016-10-28T02:46:29.768Z,1018.69
2016-10-28T02:47:29.785Z,1018.69
2016-10-28T02:48:29.801Z,1018.74
2016-10-28T02:49:29.818Z,1018.71
2016-10-28T02:50:29.835Z,1018.69
2016-10-28T02:51:29.850Z,1018.71
2016-10-28T02:52:29.868Z,1018.7
2016-10-28T02:53:29.887Z,1018.68
2016-10-28T02:54:29.901Z,1018.68
2016-10-28T02:55:29.919Z,1018.69
2016-10-28T02:56:29.933Z,1018.63
2016-10-28T02:57:29.950Z,1018.61
2016-10-28T02:58:29.967Z,1018.55
2016-10-28T02:59:29.983Z,1018.52
2016-10-28T03:00:29.999Z,1018.45
2016-10-28T03:01:30.016Z,1018.41
2016-10-28T03:02:30.033Z,1018.42
2016-10-28T03:03:30.049Z,1018.4
2016-10-28T03:04:30.066Z,1018.38
2016-10-28T03:05:30.083Z,1018.32
2016-10-28T03:06:30.098Z,1018.32
2016-10-28T03:07:30.115Z,1018.39
2016-10-28T03:08:30.132Z,1018.35
2016-10-28T03:09:30.148Z,1018.35
2016-10-28T03:10:30.164Z,1018.35
2016-10-28T03:11:30.181Z,1018.37
2016-10-28T03:12:30.197Z,1018.38
2016-10-28T03:13:30.213Z,1018.36
2016-10-28T03:14:30.230Z,1018.32
2016-10-28T03:15:30.247Z,1018.36
2016-10-28T03:16:30.264Z,1018.31
2016-10-28T03:17:30.280Z,1018.25
2016-10-28T03:18:30.296Z,1018.2
2016-10-28T03:19:30.313Z,1018.17
2016-10-28T03:20:30.330Z,1018.12
2016-10-28T03:21:30.346Z,1018.13
2016-10-28T03:22:30.365Z,1018.15
2016-10-28T03:23:30.380Z,1018.17
2016-10-28T03:24:30.395Z,1018.23
2016-10-28T03:25:30.412Z,1018.16
2016-10-28T03:26:30.429Z,1018.14
2016-10-28T03:27:30.446Z,1018.23
2016-10-28T03:28:30.461Z,1018.17
2016-10-28T03:29:30.479Z,1018.15
2016-10-28T03:30:30.495Z,1018.17
2016-10-28T03:31:30.511Z,1018.09
2016-10-28T03:32:30.527Z,1018.04
2016-10-28T03:33:30.544Z,1018.05
2016-10-28T03:34:30.561Z,1017.98
2016-10-28T03:35:30.576Z,1018.01
2016-10-28T03:36:30.593Z,1018.04
2016-10-28T03:37:30.610Z,1018.01
2016-10-28T03:38:30.631Z,1017.95
2016-10-28T03:39:30.642Z,1017.94
2016-10-28T03:40:30.659Z,1017.87
2016-10-28T03:41:30.677Z,1017.87
2016-10-28T03:42:30.692Z,1017.87
2016-10-28T03:43:30.709Z,1017.86
2016-10-28T03:44:30.725Z,1017.82
2016-10-28T03:45:30.742Z,1017.8
2016-10-28T03:46:30.757Z,1017.85
2016-10-28T03:47:30.774Z,1017.85
2016-10-28T03:48:30.791Z,1017.8
2016-10-28T03:49:30.808Z,1017.81
2016-10-28T03:50:30.823Z,1017.81
2016-10-28T03:51:30.840Z,1017.87
2016-10-28T03:52:30.857Z,1017.86
2016-10-28T03:53:30.872Z,1017.89
2016-10-28T03:54:30.889Z,1017.91
2016-10-28T03:55:30.906Z,1017.88
2016-10-28T03:56:30.992Z,1017.89
2016-10-28T03:57:30.940Z,1017.91
2016-10-28T03:58:30.955Z,1018.02
2016-10-28T03:59:30.970Z,1017.99
2016-10-28T04:00:30.988Z,1017.99
2016-10-28T04:01:31.004Z,1018.06
2016-10-28T04:02:31.021Z,1018.04
2016-10-28T04:03:31.037Z,1018.12
2016-10-28T04:04:31.061Z,1018.15
2016-10-28T04:05:31.069Z,1018.16
2016-10-28T04:06:31.086Z,1018.17
2016-10-28T04:07:31.106Z,1018.22
2016-10-28T04:08:31.118Z,1018.24
2016-10-28T04:09:31.136Z,1018.26
2016-10-28T04:10:31.152Z,1018.25
2016-10-28T04:11:31.169Z,1018.29
2016-10-28T04:12:31.185Z,1018.25
2016-10-28T04:13:31.204Z,1018.28
2016-10-28T04:14:31.218Z,1018.28
2016-10-28T04:15:31.234Z,1018.24
2016-10-28T04:16:31.249Z,1018.23
2016-10-28T04:17:31.266Z,1018.27
2016-10-28T04:18:31.283Z,1018.23
2016-10-28T04:19:31.298Z,1018.22
2016-10-28T04:20:31.317Z,1018.15
2016-10-28T04:21:31.332Z,1018.11
2016-10-28T04:22:31.350Z,1018.07
2016-10-28T04:23:31.365Z,1018.08
2016-10-28T04:24:31.381Z,1018
2016-10-28T04:25:31.397Z,1018.02
2016-10-28T04:26:31.415Z,1018.04
2016-10-28T04:27:31.431Z,1018.03
2016-10-28T04:28:31.447Z,1017.96
2016-10-28T04:29:31.464Z,1017.96
2016-10-28T04:30:31.479Z,1017.91
2016-10-28T04:31:31.496Z,1017.88
2016-10-28T04:32:31.512Z,1017.86
2016-10-28T04:33:31.530Z,1017.88
2016-10-28T04:34:31.545Z,1017.91
2016-10-28T04:35:31.561Z,1017.89
2016-10-28T04:36:31.578Z,1017.91
2016-10-28T04:37:31.595Z,1017.9
2016-10-28T04:38:31.611Z,1017.91
2016-10-28T04:39:31.627Z,1017.91
2016-10-28T04:40:31.643Z,1017.92
2016-10-28T04:41:31.662Z,1017.98
2016-10-28T04:42:31.676Z,1017.98
2016-10-28T04:43:31.693Z,1018.01
2016-10-28T04:44:31.710Z,1017.97
2016-10-28T04:45:31.726Z,1017.97
2016-10-28T04:46:31.743Z,1017.98
2016-10-28T04:47:31.758Z,1017.95
2016-10-28T04:48:31.774Z,1017.95
2016-10-28T04:49:31.791Z,1017.98
2016-10-28T04:50:31.808Z,1017.95
2016-10-28T04:51:31.825Z,1018.02
2016-10-28T04:52:31.840Z,1018.04
2016-10-28T04:53:31.857Z,1017.97
2016-10-28T04:54:31.874Z,1017.94
2016-10-28T04:55:31.891Z,1017.9
2016-10-28T04:56:31.907Z,1017.87
2016-10-28T04:57:31.924Z,1017.86
2016-10-28T04:58:31.941Z,1017.83
2016-10-28T04:59:31.956Z,1017.79
2016-10-28T05:00:31.972Z,1017.8
2016-10-28T05:01:31.989Z,1017.76
2016-10-28T05:02:32.070Z,1017.77
2016-10-28T05:03:32.068Z,1017.72
2016-10-28T05:04:32.076Z,1017.7
2016-10-28T05:05:32.086Z,1017.74
2016-10-28T05:06:32.094Z,1017.71
2016-10-28T05:07:32.103Z,1017.68
2016-10-28T05:08:32.113Z,1017.65
2016-10-28T05:09:32.121Z,1017.6
2016-10-28T05:10:32.255Z,1017.58
2016-10-28T05:11:32.154Z,1017.61
2016-10-28T05:12:32.170Z,1017.62
2016-10-28T05:13:32.186Z,1017.61
2016-10-28T05:14:32.202Z,1017.6
2016-10-28T05:15:32.219Z,1017.64
2016-10-28T05:16:32.236Z,1017.63
2016-10-28T05:17:32.251Z,1017.61
2016-10-28T05:18:32.268Z,1017.61
2016-10-28T05:19:32.285Z,1017.64
2016-10-28T05:20:32.300Z,1017.62
2016-10-28T05:21:32.317Z,1017.65
2016-10-28T05:22:32.333Z,1017.66
2016-10-28T05:23:32.350Z,1017.7
2016-10-28T05:24:32.367Z,1017.67
2016-10-28T05:25:32.382Z,1017.68
2016-10-28T05:26:32.399Z,1017.72
2016-10-28T05:27:32.415Z,1017.76
2016-10-28T05:28:32.431Z,1017.77
2016-10-28T05:29:32.448Z,1017.85
2016-10-28T05:30:32.464Z,1017.85
2016-10-28T05:31:32.481Z,1017.87
2016-10-28T05:32:32.497Z,1017.88
2016-10-28T05:33:32.513Z,1017.9
2016-10-28T05:34:32.530Z,1017.96
2016-10-28T05:35:32.547Z,1017.96
2016-10-28T05:36:32.563Z,1017.96
2016-10-28T05:37:32.579Z,1017.99
2016-10-28T05:38:32.597Z,1017.98
2016-10-28T05:39:32.611Z,1017.95
2016-10-28T05:40:32.628Z,1017.96
2016-10-28T05:41:32.645Z,1017.95
2016-10-28T05:42:32.665Z,1017.97
2016-10-28T05:43:32.677Z,1017.89
2016-10-28T05:44:32.692Z,1017.87
2016-10-28T05:45:32.709Z,1017.87
2016-10-28T05:46:32.727Z,1017.86
2016-10-28T05:47:32.741Z,1017.83
2016-10-28T05:48:32.759Z,1017.8
2016-10-28T05:49:32.776Z,1017.77
2016-10-28T05:50:32.791Z,1017.76
2016-10-28T05:51:32.808Z,1017.77
2016-10-28T05:52:32.825Z,1017.79
2016-10-28T05:53:32.841Z,1017.8
2016-10-28T05:54:32.856Z,1017.81
2016-10-28T05:55:32.872Z,1017.86
2016-10-28T05:56:32.890Z,1017.89
2016-10-28T05:57:32.911Z,1017.91
2016-10-28T05:58:32.922Z,1017.89
2016-10-28T05:59:32.937Z,1017.9
2016-10-28T06:00:32.955Z,1017.91
2016-10-28T06:01:32.970Z,1017.92
2016-10-28T06:02:32.987Z,1017.89
2016-10-28T06:03:33.004Z,1017.91
2016-10-28T06:04:33.019Z,1017.89
2016-10-28T06:05:33.036Z,1017.92
2016-10-28T06:06:33.052Z,1017.89
2016-10-28T06:07:33.069Z,1017.9
2016-10-28T06:08:33.086Z,1017.94
2016-10-28T06:09:33.101Z,1017.92
2016-10-28T06:10:33.117Z,1017.96
2016-10-28T06:11:33.134Z,1017.96
2016-10-28T06:12:33.150Z,1018.01
2016-10-28T06:13:33.167Z,1018.06
2016-10-28T06:14:33.183Z,1018.03
2016-10-28T06:15:33.199Z,1018.01
2016-10-28T06:16:33.215Z,1017.99
2016-10-28T06:17:33.231Z,1017.95
2016-10-28T06:18:33.248Z,1017.91
2016-10-28T06:19:33.266Z,1017.93
2016-10-28T06:20:33.280Z,1017.93
2016-10-28T06:21:33.304Z,1017.9
2016-10-28T06:22:33.313Z,1017.93
2016-10-28T06:23:33.329Z,1017.94
2016-10-28T06:24:33.346Z,1017.94
2016-10-28T06:25:33.362Z,1017.96
2016-10-28T06:26:33.380Z,1017.95
2016-10-28T06:27:33.396Z,1017.95
2016-10-28T06:28:33.411Z,1017.98
2016-10-28T06:29:33.428Z,1017.97
2016-10-28T06:30:33.444Z,1017.9
2016-10-28T06:31:33.461Z,1017.84
2016-10-28T06:32:33.481Z,1017.88
2016-10-28T06:33:33.496Z,1017.86
2016-10-28T06:34:33.509Z,1017.85
2016-10-28T06:35:33.530Z,1017.8
2016-10-28T06:36:33.543Z,1017.81
2016-10-28T06:37:33.564Z,1017.8
2016-10-28T06:38:33.579Z,1017.76
2016-10-28T06:39:33.594Z,1017.79
2016-10-28T06:40:33.609Z,1017.78
2016-10-28T06:41:33.624Z,1017.73
2016-10-28T06:42:33.645Z,1017.82
2016-10-28T06:43:33.659Z,1017.8
2016-10-28T06:44:33.674Z,1017.83
2016-10-28T06:45:33.689Z,1017.81
2016-10-28T06:46:33.707Z,1017.81
2016-10-28T06:47:33.723Z,1017.78
2016-10-28T06:48:33.741Z,1017.77
2016-10-28T06:49:33.757Z,1017.76
2016-10-28T06:50:33.774Z,1017.77
2016-10-28T06:51:33.788Z,1017.78
2016-10-28T06:52:33.807Z,1017.7
2016-10-28T06:53:33.821Z,1017.7
2016-10-28T06:54:33.840Z,1017.7
2016-10-28T06:55:33.860Z,1017.65
2016-10-28T06:56:33.872Z,1017.67
2016-10-28T06:57:33.889Z,1017.73
2016-10-28T06:58:33.907Z,1017.76
2016-10-28T06:59:33.922Z,1017.79
2016-10-28T07:00:34.006Z,1017.85
2016-10-28T07:01:33.952Z,1017.87
2016-10-28T07:02:33.968Z,1017.83
2016-10-28T07:03:33.985Z,1017.92
2016-10-28T07:04:33.999Z,1017.97
2016-10-28T07:05:34.017Z,1017.95
2016-10-28T07:06:34.035Z,1017.98
2016-10-28T07:07:34.054Z,1017.97
2016-10-28T07:08:34.066Z,1017.96
2016-10-28T07:09:34.091Z,1017.93
2016-10-28T07:10:34.100Z,1017.91
2016-10-28T07:11:34.115Z,1017.93
2016-10-28T07:12:34.136Z,1018.01
2016-10-28T07:13:34.153Z,1018.06
2016-10-28T07:14:34.165Z,1018.03
2016-10-28T07:15:34.183Z,1018.08
2016-10-28T07:16:34.201Z,1018.08
2016-10-28T07:17:34.217Z,1018.08
2016-10-28T07:18:34.238Z,1018.08
2016-10-28T07:19:34.249Z,1018.06
2016-10-28T07:20:34.267Z,1018.11
2016-10-28T07:21:34.285Z,1018.1
2016-10-28T07:22:34.297Z,1018.18
2016-10-28T07:23:34.315Z,1018.18
2016-10-28T07:24:34.330Z,1018.22
2016-10-28T07:25:34.345Z,1018.23
2016-10-28T07:26:34.372Z,1018.28
2016-10-28T07:27:34.378Z,1018.24
2016-10-28T07:28:34.399Z,1018.23
2016-10-28T07:29:34.412Z,1018.26
2016-10-28T07:30:34.430Z,1018.26
2016-10-28T07:31:34.447Z,1018.21
2016-10-28T07:32:34.463Z,1018.31
2016-10-28T07:33:34.477Z,1018.3
2016-10-28T07:34:34.495Z,1018.25
2016-10-28T07:35:34.512Z,1018.23
2016-10-28T07:36:34.530Z,1018.18
2016-10-28T07:37:34.544Z,1018.17
2016-10-28T07:38:34.560Z,1018.18
2016-10-28T07:39:34.579Z,1018.17
2016-10-28T07:40:34.593Z,1018.14
2016-10-28T07:41:34.613Z,1018.1
2016-10-28T07:42:34.627Z,1018.05
2016-10-28T07:43:34.644Z,1018
2016-10-28T07:44:34.660Z,1018
2016-10-28T07:45:34.677Z,1017.97
2016-10-28T07:46:34.694Z,1017.94
2016-10-28T07:47:34.712Z,1017.92
2016-10-28T07:48:34.727Z,1017.84
2016-10-28T07:49:34.743Z,1017.78
2016-10-28T07:50:34.761Z,1017.84
2016-10-28T07:51:34.776Z,1017.84
2016-10-28T07:52:34.795Z,1017.88
2016-10-28T07:53:34.810Z,1017.86
2016-10-28T07:54:34.828Z,1017.81
2016-10-28T07:55:35.044Z,1017.7
2016-10-28T07:56:34.860Z,1017.68
2016-10-28T07:57:34.876Z,1017.64
2016-10-28T07:58:34.894Z,1017.69
2016-10-28T07:59:34.912Z,1017.68
2016-10-28T08:00:34.927Z,1017.64
2016-10-28T08:01:35.024Z,1017.73
2016-10-28T08:02:34.959Z,1017.69
2016-10-28T08:03:34.982Z,1017.73
2016-10-28T08:04:34.995Z,1017.68
2016-10-28T08:05:35.011Z,1017.72
2016-10-28T08:06:35.028Z,1017.71
2016-10-28T08:07:35.045Z,1017.72
2016-10-28T08:08:35.061Z,1017.7
2016-10-28T08:09:35.079Z,1017.71
2016-10-28T08:10:35.095Z,1017.76
2016-10-28T08:11:35.113Z,1017.79
2016-10-28T08:12:35.129Z,1017.8
2016-10-28T08:13:35.146Z,1017.79
2016-10-28T08:14:35.162Z,1017.83
2016-10-28T08:15:35.180Z,1017.83
2016-10-28T08:16:35.197Z,1017.83
2016-10-28T08:17:35.213Z,1017.86
2016-10-28T08:18:35.230Z,1017.85
2016-10-28T08:19:35.247Z,1017.97
2016-10-28T08:20:35.264Z,1018.01
2016-10-28T08:21:35.280Z,1018
2016-10-28T08:22:35.297Z,1017.99
2016-10-28T08:23:35.315Z,1017.9
2016-10-28T08:24:35.331Z,1017.95
2016-10-28T08:25:35.349Z,1017.96
2016-10-28T08:26:35.366Z,1017.92
2016-10-28T08:27:35.381Z,1017.96
2016-10-28T08:28:35.401Z,1017.99
2016-10-28T08:29:35.416Z,1017.97
2016-10-28T08:30:35.434Z,1017.97
2016-10-28T08:31:35.450Z,1017.94
2016-10-28T08:32:35.469Z,1017.96
2016-10-28T08:33:35.483Z,1017.98
2016-10-28T08:34:35.503Z,1018.03
2016-10-28T08:35:35.517Z,1018.1
2016-10-28T08:36:35.536Z,1018.15
2016-10-28T08:37:35.552Z,1018.16
2016-10-28T08:38:35.570Z,1018.2
2016-10-28T08:39:35.585Z,1018.2
2016-10-28T08:40:35.603Z,1018.18
2016-10-28T08:41:35.620Z,1018.14
2016-10-28T08:42:35.636Z,1018.17
2016-10-28T08:43:35.653Z,1018.16
2016-10-28T08:44:35.670Z,1018.11
2016-10-28T08:45:35.689Z,1018.13
2016-10-28T08:46:35.704Z,1018.15
2016-10-28T08:47:35.733Z,1018.19
2016-10-28T08:48:35.739Z,1018.2
2016-10-28T08:49:35.754Z,1018.18
2016-10-28T08:50:35.774Z,1018.14
2016-10-28T08:51:35.789Z,1018.1
2016-10-28T08:52:35.807Z,1018.12
2016-10-28T08:53:35.900Z,1018.06
2016-10-28T08:54:35.845Z,1018.08
2016-10-28T08:55:35.859Z,1018.04
2016-10-28T08:56:35.876Z,1018.11
2016-10-28T08:57:35.891Z,1018.12
2016-10-28T08:58:35.909Z,1018.16
2016-10-28T08:59:35.925Z,1018.2
2016-10-28T09:00:35.943Z,1018.26
2016-10-28T09:01:35.960Z,1018.23
2016-10-28T09:02:36.179Z,1018.2
2016-10-28T09:03:35.994Z,1018.26
2016-10-28T09:04:36.011Z,1018.34
2016-10-28T09:05:36.028Z,1018.36
2016-10-28T09:06:36.048Z,1018.35
2016-10-28T09:07:36.062Z,1018.38
2016-10-28T09:08:36.079Z,1018.37
2016-10-28T09:09:36.269Z,1018.4
2016-10-28T09:10:36.113Z,1018.34
2016-10-28T09:11:36.130Z,1018.34
2016-10-28T09:12:36.148Z,1018.27
2016-10-28T09:13:36.165Z,1018.29
2016-10-28T09:14:36.182Z,1018.23
2016-10-28T09:15:36.199Z,1018.31
2016-10-28T09:16:36.216Z,1018.26
2016-10-28T09:17:36.234Z,1018.24
2016-10-28T09:18:36.250Z,1018.23
2016-10-28T09:19:36.267Z,1018.16
2016-10-28T09:20:36.284Z,1018.11
2016-10-28T09:21:36.302Z,1018.04
2016-10-28T09:22:36.319Z,1018.05
2016-10-28T09:23:36.336Z,1018.05
2016-10-28T09:24:36.354Z,1018.09
2016-10-28T09:25:36.372Z,1018.06
2016-10-28T09:26:36.388Z,1018.03
2016-10-28T09:27:36.405Z,1017.97
2016-10-28T09:28:36.423Z,1017.93
2016-10-28T09:29:36.440Z,1017.91
2016-10-28T09:30:36.457Z,1017.9
2016-10-28T09:31:36.476Z,1017.96
2016-10-28T09:32:36.493Z,1017.9
2016-10-28T09:33:36.508Z,1017.86
2016-10-28T09:34:36.526Z,1017.94
2016-10-28T09:35:36.544Z,1017.9
2016-10-28T09:36:36.561Z,1017.86
2016-10-28T09:37:36.578Z,1017.91
2016-10-28T09:38:36.595Z,1017.9
2016-10-28T09:39:36.613Z,1017.85
2016-10-28T09:40:36.631Z,1017.78
2016-10-28T09:41:36.649Z,1017.74
2016-10-28T09:42:36.667Z,1017.77
2016-10-28T09:43:36.684Z,1017.79
2016-10-28T09:44:36.700Z,1017.82
2016-10-28T09:45:36.718Z,1017.82
2016-10-28T09:46:36.735Z,1017.87
2016-10-28T09:47:36.753Z,1017.82
2016-10-28T09:48:36.769Z,1017.77
2016-10-28T09:49:36.787Z,1017.67
2016-10-28T09:50:36.805Z,1017.61
2016-10-28T09:51:36.822Z,1017.67
2016-10-28T09:52:36.840Z,1017.7
2016-10-28T09:53:36.858Z,1017.72
2016-10-28T09:54:36.876Z,1017.76
2016-10-28T09:55:36.892Z,1017.8
2016-10-28T09:56:36.910Z,1017.84
2016-10-28T09:57:36.928Z,1017.85
2016-10-28T09:58:36.944Z,1017.86
2016-10-28T09:59:36.962Z,1017.9
2016-10-28T10:00:36.980Z,1017.92
2016-10-28T10:01:37.001Z,1017.87
2016-10-28T10:02:37.018Z,1017.79
2016-10-28T10:03:37.032Z,1017.8
2016-10-28T10:04:37.050Z,1017.81
2016-10-28T10:05:37.067Z,1017.8
2016-10-28T10:06:37.084Z,1017.84
2016-10-28T10:07:37.102Z,1017.82
2016-10-28T10:08:37.123Z,1017.78
2016-10-28T10:09:37.138Z,1017.71
2016-10-28T10:10:37.155Z,1017.7
2016-10-28T10:11:37.173Z,1017.65
2016-10-28T10:12:37.191Z,1017.65
2016-10-28T10:13:37.207Z,1017.62
2016-10-28T10:14:37.224Z,1017.63
2016-10-28T10:15:37.243Z,1017.63
2016-10-28T10:16:37.262Z,1017.64
2016-10-28T10:17:37.277Z,1017.68
2016-10-28T10:18:37.296Z,1017.68
2016-10-28T10:19:37.314Z,1017.66
2016-10-28T10:20:37.331Z,1017.62
2016-10-28T10:21:37.354Z,1017.63
2016-10-28T10:22:37.367Z,1017.68
2016-10-28T10:23:37.386Z,1017.72
2016-10-28T10:24:37.402Z,1017.86
2016-10-28T10:25:37.420Z,1017.88
2016-10-28T10:26:37.437Z,1017.76
2016-10-28T10:27:37.455Z,1017.69
2016-10-28T10:28:37.472Z,1017.7
2016-10-28T10:29:37.491Z,1017.78
2016-10-28T10:30:37.509Z,1017.82
2016-10-28T10:31:37.528Z,1017.98
2016-10-28T10:32:37.544Z,1017.97
2016-10-28T10:33:37.561Z,1018.03
2016-10-28T10:34:37.580Z,1018.03
2016-10-28T10:35:37.596Z,1018.03
2016-10-28T10:36:37.614Z,1018.03
2016-10-28T10:37:37.633Z,1018.01
2016-10-28T10:38:37.651Z,1017.98
2016-10-28T10:39:37.669Z,1018.01
2016-10-28T10:40:37.686Z,1017.99
2016-10-28T10:41:37.704Z,1018
2016-10-28T10:42:37.723Z,1017.97
2016-10-28T10:43:37.740Z,1017.9
2016-10-28T10:44:37.757Z,1017.9
2016-10-28T10:45:37.775Z,1017.89
2016-10-28T10:46:37.793Z,1017.88
2016-10-28T10:47:37.811Z,1017.86
2016-10-28T10:48:37.830Z,1017.86
2016-10-28T10:49:37.847Z,1017.91
2016-10-28T10:50:37.864Z,1017.9
2016-10-28T10:51:37.882Z,1017.89
2016-10-28T10:52:37.901Z,1017.9
2016-10-28T10:53:37.919Z,1017.86
2016-10-28T10:54:37.936Z,1017.84
2016-10-28T10:55:37.955Z,1017.84
2016-10-28T10:56:37.972Z,1017.8
2016-10-28T10:57:37.990Z,1017.83
2016-10-28T10:58:38.007Z,1017.87
2016-10-28T10:59:38.026Z,1017.93
2016-10-28T11:00:38.044Z,1017.96
2016-10-28T11:01:38.061Z,1017.99
2016-10-28T11:02:38.080Z,1017.99
2016-10-28T11:03:38.097Z,1017.96
2016-10-28T11:04:38.116Z,1017.93
2016-10-28T11:05:38.133Z,1017.91
2016-10-28T11:06:38.151Z,1017.95
2016-10-28T11:07:38.170Z,1017.93
2016-10-28T11:08:38.186Z,1017.88
2016-10-28T11:09:38.205Z,1017.88
2016-10-28T11:10:38.233Z,1017.8
2016-10-28T11:11:38.242Z,1017.81
2016-10-28T11:12:38.259Z,1017.8
2016-10-28T11:13:38.277Z,1017.78
2016-10-28T11:14:38.296Z,1017.75
2016-10-28T11:15:38.314Z,1017.72
2016-10-28T11:16:38.332Z,1017.73
2016-10-28T11:17:38.351Z,1017.75
2016-10-28T11:18:38.369Z,1017.77
2016-10-28T11:19:38.388Z,1017.67
2016-10-28T11:20:38.405Z,1017.6
2016-10-28T11:21:38.422Z,1017.6
2016-10-28T11:22:38.441Z,1017.59
2016-10-28T11:23:38.573Z,1017.65
2016-10-28T11:24:38.571Z,1017.66
2016-10-28T11:25:38.606Z,1017.73
2016-10-28T11:26:38.613Z,1017.7
2016-10-28T11:27:38.623Z,1017.7
2016-10-28T11:28:38.621Z,1017.74
2016-10-28T11:29:38.630Z,1017.71
2016-10-28T11:30:38.639Z,1017.7
2016-10-28T11:31:38.648Z,1017.68
2016-10-28T11:32:38.657Z,1017.7
2016-10-28T11:33:38.655Z,1017.63
2016-10-28T11:34:38.664Z,1017.63
2016-10-28T11:35:38.676Z,1017.6
2016-10-28T11:36:38.741Z,1017.59
2016-10-28T11:37:38.741Z,1017.6
2016-10-28T11:38:38.749Z,1017.53
2016-10-28T11:39:38.758Z,1017.57
2016-10-28T11:40:38.767Z,1017.55
2016-10-28T11:41:38.785Z,1017.53
2016-10-28T11:42:38.889Z,1017.5
2016-10-28T11:43:38.898Z,1017.44
2016-10-28T11:44:38.907Z,1017.38
2016-10-28T11:45:38.941Z,1017.42
2016-10-28T11:46:38.949Z,1017.41
2016-10-28T11:47:38.958Z,1017.45
2016-10-28T11:48:38.957Z,1017.43
2016-10-28T11:49:38.930Z,1017.5
2016-10-28T11:50:38.949Z,1017.51
2016-10-28T11:51:38.968Z,1017.54
2016-10-28T11:52:38.984Z,1017.5
2016-10-28T11:53:39.004Z,1017.52
2016-10-28T11:54:39.022Z,1017.52
2016-10-28T11:55:39.041Z,1017.55
2016-10-28T11:56:39.059Z,1017.55
2016-10-28T11:57:39.077Z,1017.56
2016-10-28T11:58:39.095Z,1017.57
2016-10-28T11:59:39.112Z,1017.64
2016-10-28T12:00:39.132Z,1017.67
2016-10-28T12:01:39.151Z,1017.69
2016-10-28T12:02:39.169Z,1017.62
2016-10-28T12:03:39.187Z,1017.65
2016-10-28T12:04:39.204Z,1017.68
2016-10-28T12:05:39.223Z,1017.67
2016-10-28T12:06:39.242Z,1017.67
2016-10-28T12:07:39.261Z,1017.63
2016-10-28T12:08:39.279Z,1017.64
2016-10-28T12:09:39.297Z,1017.63